Terminal Aerodrome Forecast
Issued by NWS

Home | Current Version | Previous Version | Text Only | Print | Product List | Glossary On
Versions: 1 2 3 4 5 6 7 8 9 10 11 12 13 14 15 16 17 18 19
000
FTUS41 KGYX 182320
TAFHIE
TAF
KHIE 182320Z 1900/1924 00000KT P6SM BKN050
     FM190600 00000KT 1/2SM FG BKN001
     FM191400 VRB03KT P6SM SKC=

USA.gov is the U.S. government's official web portal to all federal, state and local government web resources and services.